createdAt,value
2017-09-26T00:01:33.804Z,10.40
2017-09-26T00:04:02.169Z,10.40
2017-09-26T00:06:30.524Z,10.30
2017-09-26T00:08:58.927Z,10.40
2017-09-26T00:11:27.291Z,10.40
2017-09-26T00:13:55.843Z,10.30
2017-09-26T00:16:24.594Z,10.30
2017-09-26T00:18:52.960Z,10.40
2017-09-26T00:21:21.324Z,10.40
2017-09-26T00:23:49.961Z,10.30
2017-09-26T00:26:18.344Z,10.20
2017-09-26T00:28:46.716Z,10.20
2017-09-26T00:31:15.124Z,10.10
2017-09-26T00:33:44.293Z,10.10
2017-09-26T00:36:16.532Z,10.10
2017-09-26T00:38:44.903Z,10.10
2017-09-26T00:41:13.309Z,10.10
2017-09-26T00:43:41.835Z,10.20
2017-09-26T00:46:10.212Z,10.20
2017-09-26T00:48:38.819Z,10.10
2017-09-26T00:51:07.317Z,10.00
2017-09-26T00:53:35.717Z,10.00
2017-09-26T00:56:04.075Z,9.90
2017-09-26T00:58:32.509Z,9.90
2017-09-26T01:01:01.154Z,9.90
2017-09-26T01:03:40.510Z,9.90
2017-09-26T01:06:09.719Z,9.90
2017-09-26T01:08:38.901Z,10.00
2017-09-26T01:11:07.659Z,9.90
2017-09-26T01:13:36.023Z,10.00
2017-09-26T01:16:04.808Z,10.00
2017-09-26T01:18:33.201Z,10.00
2017-09-26T01:21:01.622Z,10.00
2017-09-26T01:23:30.773Z,10.00
2017-09-26T01:25:59.202Z,10.00
2017-09-26T01:28:28.322Z,9.90
2017-09-26T01:30:56.701Z,9.90
2017-09-26T01:33:25.390Z,10.00
2017-09-26T01:35:53.890Z,10.00
2017-09-26T01:38:22.250Z,10.00
2017-09-26T01:41:02.858Z,10.00
2017-09-26T01:43:32.750Z,10.00
2017-09-26T01:46:01.114Z,10.00
2017-09-26T01:48:29.693Z,10.00
2017-09-26T01:50:58.050Z,10.00
2017-09-26T01:53:27.207Z,10.00
2017-09-26T01:55:55.704Z,10.00
2017-09-26T02:01:42.910Z,10.00
2017-09-26T02:04:11.285Z,10.00
2017-09-26T02:06:39.661Z,10.00
2017-09-26T02:09:08.132Z,10.10
2017-09-26T02:11:36.504Z,10.10
2017-09-26T02:14:04.866Z,10.10
2017-09-26T02:16:33.412Z,10.00
2017-09-26T02:19:01.795Z,10.10
2017-09-26T02:21:30.161Z,10.10
2017-09-26T02:23:58.689Z,10.10
2017-09-26T02:26:27.829Z,10.20
2017-09-26T02:28:56.223Z,10.10
2017-09-26T02:31:24.622Z,10.10
2017-09-26T02:33:53.156Z,10.10
2017-09-26T02:36:21.528Z,10.10
2017-09-26T02:38:49.940Z,10.10
2017-09-26T02:41:18.304Z,10.10
2017-09-26T02:43:46.663Z,10.10
2017-09-26T02:46:15.224Z,10.20
2017-09-26T02:48:43.627Z,10.20
2017-09-26T02:51:12.018Z,10.20
2017-09-26T02:53:40.612Z,10.20
2017-09-26T02:56:09.013Z,10.20
2017-09-26T02:58:38.213Z,10.20
2017-09-26T03:01:06.722Z,10.10
2017-09-26T03:03:35.852Z,10.20
2017-09-26T03:06:04.231Z,10.20
2017-09-26T03:08:32.849Z,10.20
2017-09-26T03:11:01.239Z,10.20
2017-09-26T03:13:29.614Z,10.20
2017-09-26T03:15:58.169Z,10.20
2017-09-26T03:18:26.759Z,10.20
2017-09-26T03:20:55.111Z,10.20
2017-09-26T03:23:23.555Z,10.20
2017-09-26T03:25:52.685Z,10.30
2017-09-26T03:28:21.044Z,10.20
2017-09-26T03:30:49.448Z,10.30
2017-09-26T03:33:17.805Z,10.30
2017-09-26T03:35:46.462Z,10.30
2017-09-26T03:38:15.763Z,10.30
2017-09-26T03:40:44.154Z,10.30
2017-09-26T03:43:13.285Z,10.30
2017-09-26T03:45:41.710Z,10.30
2017-09-26T03:48:10.103Z,10.30
2017-09-26T03:50:39.215Z,10.40
2017-09-26T03:53:07.746Z,10.40
2017-09-26T03:55:36.277Z,10.40
2017-09-26T03:58:04.670Z,10.40
2017-09-26T04:00:33.339Z,10.40
2017-09-26T04:03:01.770Z,10.40
2017-09-26T04:05:30.149Z,10.40
2017-09-26T04:07:58.595Z,10.40
2017-09-26T04:10:26.991Z,10.40
2017-09-26T04:12:55.343Z,10.50
2017-09-26T04:15:23.744Z,10.40
2017-09-26T04:17:52.123Z,10.40
2017-09-26T04:20:20.610Z,10.50
2017-09-26T04:22:49.023Z,10.50
2017-09-26T04:25:17.419Z,10.40
2017-09-26T04:27:46.538Z,10.40
2017-09-26T04:30:14.940Z,10.40
2017-09-26T04:32:43.298Z,10.50
2017-09-26T04:35:11.671Z,10.50
2017-09-26T04:37:40.518Z,10.50
2017-09-26T04:40:08.904Z,10.50
2017-09-26T04:42:37.295Z,10.60
2017-09-26T04:45:06.497Z,10.50
2017-09-26T04:47:35.987Z,10.50
2017-09-26T04:50:04.386Z,10.50
2017-09-26T04:52:32.821Z,10.50
2017-09-26T04:55:01.177Z,10.60
2017-09-26T04:57:29.534Z,10.60
2017-09-26T04:59:57.996Z,10.60
2017-09-26T05:02:27.405Z,10.70
2017-09-26T05:04:55.811Z,10.70
2017-09-26T05:07:24.262Z,10.70
2017-09-26T05:09:53.640Z,10.60
2017-09-26T05:12:22.004Z,10.60
2017-09-26T05:14:50.727Z,10.60
2017-09-26T05:17:19.149Z,10.70
2017-09-26T05:19:47.510Z,10.60
2017-09-26T05:22:16.340Z,10.60
2017-09-26T05:24:44.710Z,10.60
2017-09-26T05:27:13.095Z,10.70
2017-09-26T05:29:41.518Z,10.80
2017-09-26T05:32:09.884Z,10.70
2017-09-26T05:34:39.043Z,10.70
2017-09-26T05:37:07.811Z,10.70
2017-09-26T05:39:36.481Z,10.80
2017-09-26T05:42:04.849Z,10.80
2017-09-26T05:44:33.485Z,10.80
2017-09-26T05:47:02.702Z,10.80
2017-09-26T05:49:31.070Z,10.80
2017-09-26T05:51:59.600Z,10.80
2017-09-26T05:54:27.969Z,10.80
2017-09-26T05:56:56.393Z,10.80
2017-09-26T05:59:24.811Z,10.80
2017-09-26T06:01:53.238Z,10.90
2017-09-26T06:04:22.263Z,10.90
2017-09-26T06:06:51.016Z,10.90
2017-09-26T06:09:19.393Z,10.90
2017-09-26T06:11:47.771Z,10.90
2017-09-26T06:14:16.188Z,11.00
2017-09-26T06:16:44.571Z,11.00
2017-09-26T06:19:13.574Z,11.10
2017-09-26T06:21:42.739Z,11.10
2017-09-26T06:24:11.324Z,11.10
2017-09-26T06:26:39.768Z,11.10
2017-09-26T06:29:08.340Z,11.10
2017-09-26T06:31:36.798Z,11.10
2017-09-26T06:34:06.034Z,11.10
2017-09-26T06:36:34.493Z,11.10
2017-09-26T06:39:02.913Z,11.10
2017-09-26T06:41:31.469Z,11.10
2017-09-26T06:44:00.253Z,11.20
2017-09-26T06:46:28.669Z,11.30
2017-09-26T06:48:57.071Z,11.30
2017-09-26T06:51:25.889Z,11.30
2017-09-26T06:53:54.321Z,11.30
2017-09-26T06:56:22.695Z,11.30
2017-09-26T06:58:52.034Z,11.40
2017-09-26T07:01:21.296Z,11.40
2017-09-26T07:03:49.716Z,11.40
2017-09-26T07:06:19.225Z,11.50
2017-09-26T07:08:48.368Z,11.50
2017-09-26T07:11:16.735Z,11.50
2017-09-26T07:13:45.408Z,11.50
2017-09-26T07:16:13.886Z,11.60
2017-09-26T07:18:43.108Z,11.60
2017-09-26T07:21:11.953Z,11.60
2017-09-26T07:23:41.406Z,11.70
2017-09-26T07:26:09.986Z,11.70
2017-09-26T07:28:38.836Z,11.70
2017-09-26T07:31:07.272Z,11.60
2017-09-26T07:33:35.702Z,11.70
2017-09-26T07:36:04.707Z,11.70
2017-09-26T07:38:33.109Z,11.90
2017-09-26T07:41:01.512Z,11.90
2017-09-26T07:43:30.232Z,11.90
2017-09-26T07:45:59.437Z,11.80
2017-09-26T07:48:28.627Z,11.80
2017-09-26T07:50:57.994Z,11.70
2017-09-26T07:53:27.996Z,11.70
2017-09-26T07:55:56.528Z,11.90
2017-09-26T07:58:25.129Z,11.80
2017-09-26T08:00:54.071Z,11.80
2017-09-26T08:03:23.404Z,11.90
2017-09-26T08:05:52.267Z,12.00
2017-09-26T08:08:21.446Z,12.10
2017-09-26T08:10:49.930Z,12.20
2017-09-26T08:13:18.506Z,12.30
2017-09-26T08:15:46.884Z,12.50
2017-09-26T08:18:15.385Z,12.60
2017-09-26T08:20:43.923Z,12.60
2017-09-26T08:23:12.314Z,12.80
2017-09-26T08:25:40.781Z,12.80
2017-09-26T08:28:09.736Z,12.90
2017-09-26T08:30:38.935Z,13.50
2017-09-26T08:33:08.171Z,13.80
2017-09-26T08:35:36.650Z,13.80
2017-09-26T08:38:05.092Z,13.60
2017-09-26T08:40:34.408Z,13.60
2017-09-26T08:43:03.787Z,13.60
2017-09-26T08:45:32.655Z,13.60
2017-09-26T08:48:01.040Z,13.50
2017-09-26T08:50:30.013Z,13.60
2017-09-26T08:52:58.415Z,13.60
2017-09-26T08:55:27.786Z,13.70
2017-09-26T08:57:57.710Z,13.80
2017-09-26T09:00:26.715Z,13.80
2017-09-26T09:02:55.149Z,13.70
2017-09-26T09:05:23.810Z,13.70
2017-09-26T09:07:52.622Z,13.80
2017-09-26T09:10:21.242Z,14.00
2017-09-26T09:12:50.879Z,13.80
2017-09-26T09:15:19.319Z,13.80
2017-09-26T09:17:47.784Z,13.90
2017-09-26T09:20:16.331Z,14.00
2017-09-26T09:22:45.714Z,13.90
2017-09-26T09:25:15.145Z,13.80
2017-09-26T09:27:44.673Z,14.00
2017-09-26T09:30:13.569Z,14.00
2017-09-26T09:32:41.999Z,13.90
2017-09-26T09:35:11.247Z,13.80
2017-09-26T09:37:41.260Z,14.00
2017-09-26T09:40:10.663Z,14.20
2017-09-26T09:42:39.314Z,14.20
2017-09-26T09:45:07.697Z,14.20
2017-09-26T09:47:38.381Z,14.30
2017-09-26T09:50:09.699Z,14.30
2017-09-26T09:52:40.663Z,14.40
2017-09-26T09:55:10.213Z,14.60
2017-09-26T09:57:39.398Z,14.60
2017-09-26T10:00:07.866Z,14.60
2017-09-26T10:02:36.346Z,14.50
2017-09-26T10:05:04.788Z,14.90
2017-09-26T10:07:33.219Z,15.20
2017-09-26T10:10:02.630Z,15.30
2017-09-26T10:12:35.020Z,15.40
2017-09-26T10:15:04.398Z,15.60
2017-09-26T10:17:33.631Z,15.60
2017-09-26T10:20:03.929Z,15.00
2017-09-26T10:22:32.516Z,15.00
2017-09-26T10:25:00.911Z,15.10
2017-09-26T10:27:30.625Z,15.80
2017-09-26T10:29:59.084Z,15.80
2017-09-26T10:32:28.242Z,15.80
2017-09-26T10:34:56.738Z,15.90
2017-09-26T10:37:25.243Z,15.60
2017-09-26T10:39:53.647Z,15.30
2017-09-26T10:42:22.834Z,15.50
2017-09-26T10:44:52.939Z,15.60
2017-09-26T10:47:21.806Z,15.60
2017-09-26T10:49:51.975Z,15.40
2017-09-26T10:52:21.298Z,15.30
2017-09-26T10:54:49.707Z,15.30
2017-09-26T10:57:18.386Z,15.60
2017-09-26T10:59:46.849Z,15.70
2017-09-26T11:02:16.292Z,15.80
2017-09-26T11:04:44.956Z,16.50
2017-09-26T11:07:14.167Z,16.70
2017-09-26T11:09:45.329Z,17.40
2017-09-26T11:12:13.761Z,17.80
2017-09-26T11:14:42.276Z,18.20
2017-09-26T11:17:11.647Z,18.50
2017-09-26T11:19:40.042Z,18.70
2017-09-26T11:22:09.429Z,19.20
2017-09-26T11:24:37.903Z,19.20
2017-09-26T11:27:06.390Z,19.80
2017-09-26T11:29:34.958Z,20.20
2017-09-26T11:32:03.413Z,20.20
2017-09-26T11:34:32.803Z,19.50
2017-09-26T11:37:01.239Z,19.50
2017-09-26T11:39:29.765Z,20.40
2017-09-26T11:41:58.249Z,21.20
2017-09-26T11:44:27.463Z,20.60
2017-09-26T11:46:59.848Z,20.30
2017-09-26T11:49:29.506Z,20.30
2017-09-26T11:51:58.751Z,20.60
2017-09-26T11:54:27.211Z,21.70
2017-09-26T11:56:56.194Z,20.90
2017-09-26T11:59:27.329Z,20.50
2017-09-26T12:01:55.865Z,20.70
2017-09-26T12:04:24.797Z,20.70
2017-09-26T12:06:54.114Z,21.40
2017-09-26T12:09:22.668Z,21.70
2017-09-26T12:11:52.503Z,21.10
2017-09-26T12:14:21.349Z,21.60
2017-09-26T12:16:50.644Z,21.90
2017-09-26T12:19:19.229Z,21.50
2017-09-26T12:21:48.518Z,21.10
2017-09-26T12:24:17.448Z,20.50
2017-09-26T12:26:46.061Z,21.30
2017-09-26T12:29:15.246Z,20.80
2017-09-26T12:31:43.629Z,20.70
2017-09-26T12:34:12.073Z,21.90
2017-09-26T12:36:41.507Z,20.90
2017-09-26T12:39:12.646Z,20.80
2017-09-26T12:41:41.137Z,20.70
2017-09-26T12:44:10.351Z,20.10
2017-09-26T12:46:39.559Z,19.90
2017-09-26T12:49:09.843Z,19.70
2017-09-26T12:51:38.434Z,19.70
2017-09-26T12:54:06.875Z,19.60
2017-09-26T12:56:35.512Z,19.40
2017-09-26T12:59:04.201Z,19.40
2017-09-26T13:01:35.097Z,19.60
2017-09-26T13:04:03.536Z,19.60
2017-09-26T13:06:32.674Z,19.80
2017-09-26T13:09:02.108Z,19.90
2017-09-26T13:11:30.510Z,19.30
2017-09-26T13:13:58.854Z,19.60
2017-09-26T13:16:27.252Z,19.30
2017-09-26T13:18:56.268Z,19.00
2017-09-26T13:21:25.539Z,19.00
2017-09-26T13:23:54.042Z,18.90
2017-09-26T13:26:24.421Z,19.30
2017-09-26T13:28:53.684Z,19.20
2017-09-26T13:31:23.672Z,19.40
2017-09-26T13:33:53.000Z,19.40
2017-09-26T13:36:21.781Z,19.40
2017-09-26T13:38:51.795Z,19.10
2017-09-26T13:41:21.816Z,19.30
2017-09-26T13:43:50.571Z,19.30
2017-09-26T13:46:20.412Z,19.40
2017-09-26T13:48:50.274Z,19.30
2017-09-26T13:51:18.817Z,19.30
2017-09-26T13:53:47.286Z,19.20
2017-09-26T13:56:16.652Z,18.90
2017-09-26T13:58:45.821Z,18.80
2017-09-26T14:01:14.279Z,19.30
2017-09-26T14:03:42.895Z,19.30
2017-09-26T14:06:11.343Z,19.30
2017-09-26T14:08:40.500Z,19.50
2017-09-26T14:11:09.277Z,19.50
2017-09-26T14:13:39.547Z,20.50
2017-09-26T14:16:08.913Z,20.80
2017-09-26T14:18:39.943Z,20.40
2017-09-26T14:21:08.433Z,20.30
2017-09-26T14:23:36.989Z,19.90
2017-09-26T14:26:05.534Z,19.50
2017-09-26T14:28:34.745Z,19.20
2017-09-26T14:31:03.314Z,19.20
2017-09-26T14:33:33.606Z,19.00
2017-09-26T14:36:02.080Z,18.60
2017-09-26T14:38:30.588Z,18.40
2017-09-26T14:41:00.541Z,18.00
2017-09-26T14:43:29.294Z,18.10
2017-09-26T14:45:58.706Z,17.90
2017-09-26T14:48:27.364Z,17.80
2017-09-26T14:50:55.846Z,17.70
2017-09-26T14:53:24.317Z,17.60
2017-09-26T14:55:52.792Z,17.70
2017-09-26T14:58:22.969Z,17.60
2017-09-26T15:00:51.354Z,17.50
2017-09-26T15:03:20.697Z,17.40
2017-09-26T15:05:49.546Z,17.30
2017-09-26T15:08:18.750Z,17.30
2017-09-26T15:10:47.248Z,17.20
2017-09-26T15:13:20.188Z,17.10
2017-09-26T15:15:49.860Z,17.10
2017-09-26T15:18:19.255Z,16.90
2017-09-26T15:20:47.650Z,16.90
2017-09-26T15:23:17.213Z,17.00
2017-09-26T15:25:45.745Z,16.90
2017-09-26T15:28:15.034Z,16.80
2017-09-26T15:30:43.704Z,16.70
2017-09-26T15:33:12.121Z,16.70
2017-09-26T15:35:41.276Z,16.40
2017-09-26T15:38:09.851Z,16.40
2017-09-26T15:40:38.257Z,16.60
2017-09-26T15:43:06.972Z,16.70
2017-09-26T15:45:36.601Z,16.50
2017-09-26T15:48:05.130Z,16.50
2017-09-26T15:50:33.508Z,16.60
2017-09-26T15:53:02.017Z,16.70
2017-09-26T15:55:30.424Z,16.80
2017-09-26T15:57:58.875Z,16.80
2017-09-26T16:00:29.206Z,17.00
2017-09-26T16:02:57.683Z,17.00
2017-09-26T16:05:26.122Z,16.90
2017-09-26T16:07:55.510Z,16.70
2017-09-26T16:10:23.987Z,16.60
2017-09-26T16:12:52.364Z,16.30
2017-09-26T16:15:20.789Z,16.40
2017-09-26T16:17:49.219Z,16.20
2017-09-26T16:20:17.654Z,16.10
2017-09-26T16:22:47.275Z,15.90
2017-09-26T16:25:15.730Z,15.90
2017-09-26T16:27:44.162Z,15.90
2017-09-26T16:30:12.806Z,15.80
2017-09-26T16:32:41.230Z,15.70
2017-09-26T16:35:09.763Z,15.70
2017-09-26T16:37:38.279Z,15.70
2017-09-26T16:40:07.505Z,15.50
2017-09-26T16:42:36.285Z,15.50
2017-09-26T16:45:05.345Z,15.40
2017-09-26T16:47:34.513Z,15.40
2017-09-26T16:50:03.022Z,15.40
2017-09-26T16:52:32.199Z,15.40
2017-09-26T16:55:00.675Z,15.40
2017-09-26T16:57:29.373Z,15.40
2017-09-26T16:59:58.968Z,15.30
2017-09-26T17:02:28.210Z,15.30
2017-09-26T17:04:56.611Z,15.20
2017-09-26T17:07:25.748Z,15.20
2017-09-26T17:09:54.125Z,15.10
2017-09-26T17:12:22.537Z,15.10
2017-09-26T17:14:51.156Z,15.00
2017-09-26T17:17:19.699Z,15.00
2017-09-26T17:19:48.892Z,14.90
2017-09-26T17:22:19.044Z,14.90
2017-09-26T17:24:47.460Z,14.80
2017-09-26T17:27:17.186Z,14.90
2017-09-26T17:29:45.839Z,14.70
2017-09-26T17:32:15.338Z,14.60
2017-09-26T17:34:44.655Z,14.50
2017-09-26T17:37:14.168Z,14.50
2017-09-26T17:39:42.633Z,14.50
2017-09-26T17:42:11.883Z,14.50
2017-09-26T17:44:41.611Z,14.30
2017-09-26T17:47:11.192Z,14.30
2017-09-26T17:49:39.609Z,14.30
2017-09-26T17:52:08.058Z,14.40
2017-09-26T17:54:37.216Z,14.50
2017-09-26T17:57:06.002Z,14.50
2017-09-26T17:59:34.550Z,14.50
2017-09-26T18:02:03.022Z,14.50
2017-09-26T18:04:31.410Z,14.40
2017-09-26T18:06:59.970Z,14.30
2017-09-26T18:09:29.121Z,14.10
2017-09-26T18:11:57.545Z,14.10
2017-09-26T18:14:26.757Z,13.80
2017-09-26T18:16:55.125Z,13.80
2017-09-26T18:19:23.519Z,13.60
2017-09-26T18:21:52.461Z,13.60
2017-09-26T18:24:20.840Z,13.60
2017-09-26T18:26:49.348Z,13.60
2017-09-26T18:29:17.830Z,13.60
2017-09-26T18:31:46.280Z,13.60
2017-09-26T18:34:21.717Z,13.60
2017-09-26T18:36:50.150Z,13.70
2017-09-26T18:39:18.586Z,13.70
2017-09-26T18:41:47.048Z,13.70
2017-09-26T18:44:18.500Z,13.80
2017-09-26T18:46:47.235Z,13.80
2017-09-26T18:49:22.283Z,13.70
2017-09-26T18:51:50.659Z,13.60
2017-09-26T18:54:19.089Z,13.50
2017-09-26T18:56:48.033Z,13.40
2017-09-26T18:59:17.196Z,13.20
2017-09-26T19:01:45.610Z,13.20
2017-09-26T19:04:16.806Z,13.20
2017-09-26T19:06:45.190Z,13.20
2017-09-26T19:09:20.381Z,13.20
2017-09-26T19:11:48.856Z,13.10
2017-09-26T19:14:18.385Z,13.10
2017-09-26T19:16:46.933Z,13.00
2017-09-26T19:19:21.612Z,13.10
2017-09-26T19:21:50.265Z,13.10
2017-09-26T19:24:18.775Z,13.10
2017-09-26T19:26:47.243Z,13.00
2017-09-26T19:29:19.872Z,12.90
2017-09-26T19:31:50.266Z,12.90
2017-09-26T19:34:18.725Z,12.90
2017-09-26T19:36:47.553Z,12.90
2017-09-26T19:39:18.829Z,12.90
2017-09-26T19:41:47.286Z,12.90
2017-09-26T19:44:18.180Z,12.80
2017-09-26T19:46:46.600Z,12.80
2017-09-26T19:49:17.627Z,12.80
2017-09-26T19:51:46.628Z,12.80
2017-09-26T19:54:18.022Z,12.80
2017-09-26T19:56:48.317Z,12.80
2017-09-26T19:59:17.453Z,12.80
2017-09-26T20:01:45.821Z,12.80
2017-09-26T20:04:17.311Z,12.70
2017-09-26T20:06:45.834Z,12.70
2017-09-26T20:09:17.912Z,12.70
2017-09-26T20:11:47.506Z,12.60
2017-09-26T20:14:18.421Z,12.60
2017-09-26T20:16:47.146Z,12.60
2017-09-26T20:19:18.331Z,12.60
2017-09-26T20:21:46.819Z,12.50
2017-09-26T20:24:18.200Z,12.50
2017-09-26T20:26:47.393Z,12.40
2017-09-26T20:29:18.540Z,12.30
2017-09-26T20:31:47.703Z,12.30
2017-09-26T20:34:18.136Z,12.30
2017-09-26T20:36:46.503Z,12.30
2017-09-26T20:39:16.474Z,12.30
2017-09-26T20:41:45.651Z,12.30
2017-09-26T20:44:21.163Z,12.30
2017-09-26T20:46:49.841Z,12.30
2017-09-26T20:49:18.235Z,12.30
2017-09-26T20:51:46.640Z,12.30
2017-09-26T20:54:15.539Z,12.30
2017-09-26T20:56:44.729Z,12.30
2017-09-26T20:59:13.743Z,12.30
2017-09-26T21:01:42.328Z,12.20
2017-09-26T21:04:10.816Z,12.20
2017-09-26T21:06:39.182Z,12.20
2017-09-26T21:09:08.072Z,12.30
2017-09-26T21:11:37.222Z,12.30
2017-09-26T21:14:05.619Z,12.30
2017-09-26T21:16:34.138Z,12.30
2017-09-26T21:19:02.504Z,12.30
2017-09-26T21:21:30.870Z,12.40
2017-09-26T21:23:59.393Z,12.40
2017-09-26T21:26:27.816Z,12.40
2017-09-26T21:28:56.258Z,12.30
2017-09-26T21:31:25.071Z,12.30
2017-09-26T21:33:53.529Z,12.20
2017-09-26T21:36:21.912Z,12.20
2017-09-26T21:38:50.716Z,12.20
2017-09-26T21:41:19.159Z,12.20
2017-09-26T21:43:47.556Z,12.20
2017-09-26T21:46:16.117Z,12.30
2017-09-26T21:48:44.483Z,12.30
2017-09-26T21:51:13.731Z,12.30
2017-09-26T21:53:42.271Z,12.30
2017-09-26T21:56:10.754Z,12.30
2017-09-26T21:58:39.167Z,12.40
2017-09-26T22:01:07.791Z,12.40
2017-09-26T22:03:36.223Z,12.30
2017-09-26T22:06:04.598Z,12.30
2017-09-26T22:08:33.041Z,12.20
2017-09-26T22:11:02.183Z,12.20
2017-09-26T22:13:30.552Z,12.10
2017-09-26T22:15:59.847Z,12.10
2017-09-26T22:18:28.224Z,12.00
2017-09-26T22:20:56.586Z,11.80
2017-09-26T22:23:25.129Z,11.70
2017-09-26T22:25:53.530Z,11.80
2017-09-26T22:28:22.656Z,11.90
2017-09-26T22:30:51.077Z,11.90
2017-09-26T22:33:19.517Z,11.90
2017-09-26T22:35:47.884Z,12.00
2017-09-26T22:38:16.295Z,12.00
2017-09-26T22:40:44.749Z,12.00
2017-09-26T22:43:13.144Z,12.00
2017-09-26T22:45:42.337Z,11.90
2017-09-26T22:48:10.701Z,11.90
2017-09-26T22:50:39.097Z,11.90
2017-09-26T22:53:07.665Z,11.90
2017-09-26T22:55:36.037Z,11.80
2017-09-26T22:58:04.581Z,11.80
2017-09-26T23:00:33.769Z,11.80
2017-09-26T23:03:02.129Z,11.80
2017-09-26T23:05:31.414Z,11.80
2017-09-26T23:07:59.906Z,11.80
2017-09-26T23:10:28.277Z,11.80
2017-09-26T23:12:56.707Z,11.80
2017-09-26T23:15:25.492Z,11.80
2017-09-26T23:17:54.982Z,11.80
2017-09-26T23:20:23.371Z,11.80
2017-09-26T23:22:52.430Z,11.80
2017-09-26T23:25:20.802Z,11.80
2017-09-26T23:27:49.222Z,11.80
2017-09-26T23:30:17.682Z,11.80
2017-09-26T23:32:46.050Z,11.80
2017-09-26T23:35:15.150Z,11.80
2017-09-26T23:37:43.676Z,11.80
2017-09-26T23:40:12.808Z,11.70
2017-09-26T23:42:41.227Z,11.70
2017-09-26T23:45:09.653Z,11.70
2017-09-26T23:47:38.044Z,11.60
2017-09-26T23:50:06.425Z,11.60
2017-09-26T23:52:34.815Z,11.60
2017-09-26T23:55:03.245Z,11.70
2017-09-26T23:57:32.408Z,11.70
